Time;durP1;ratioP1;P1;durP2;ratioP2;P2;SDS_P1;SDS_P2;PMS_P1;PMS_P2;Temp;Humidity;BMP_temperature;BMP_pressure;BME280_temperature;BME280_humidity;BME280_pressure;Samples;Min_cycle;Max_cycle;Signal;HPM_P1;HPM_P2
2023/06/13 00:01:20;;;;;;;8.43;5.03;;;;;;;16.72;100.00;94021.59;5094110;28;20024;-85
2023/06/13 00:03:47;;;;;;;7.22;4.93;;;;;;;16.56;100.00;94019.44;5095418;28;20080;-85
2023/06/13 00:06:15;;;;;;;9.77;5.05;;;;;;;16.78;100.00;94015.81;5077651;28;20032;-85
2023/06/13 00:08:42;;;;;;;7.25;4.78;;;;;;;16.80;100.00;94012.84;5093508;28;20492;-85
2023/06/13 00:11:07;;;;;;;7.85;4.10;;;;;;;16.93;100.00;94016.44;5093695;28;20402;-85
2023/06/13 00:13:33;;;;;;;6.50;4.28;;;;;;;16.65;100.00;94017.56;5093994;28;20048;-85
2023/06/13 00:16:00;;;;;;;6.30;4.38;;;;;;;16.66;100.00;94013.06;5093700;28;20035;-85
2023/06/13 00:18:29;;;;;;;10.32;5.13;;;;;;;16.66;100.00;94018.34;5110301;28;20042;-85
2023/06/13 00:20:54;;;;;;;6.88;4.15;;;;;;;16.71;100.00;94020.81;5093965;28;20338;-85
2023/06/13 00:23:20;;;;;;;6.40;4.32;;;;;;;16.88;100.00;94019.22;5128913;27;20043;-85
2023/06/13 00:25:46;;;;;;;6.28;4.32;;;;;;;16.49;100.00;94033.13;5130711;27;20036;-85
2023/06/13 00:28:11;;;;;;;7.43;5.10;;;;;;;16.16;100.00;94030.97;5096719;28;20118;-85
2023/06/13 00:30:36;;;;;;;7.30;4.60;;;;;;;16.05;100.00;94038.44;5096323;28;20042;-85
2023/06/13 00:33:04;;;;;;;9.68;5.22;;;;;;;16.42;100.00;94037.34;5096182;28;20039;-85
2023/06/13 00:35:33;;;;;;;8.95;4.70;;;;;;;16.08;100.00;94032.50;5097305;28;20119;-85
2023/06/13 00:37:58;;;;;;;8.05;4.88;;;;;;;15.89;100.00;94035.44;5130373;27;20089;-85
2023/06/13 00:40:24;;;;;;;7.18;5.00;;;;;;;15.93;100.00;94039.03;5096146;28;20372;-85
2023/06/13 00:42:53;;;;;;;6.00;4.75;;;;;;;16.22;100.00;94034.22;5097219;28;20111;-85
2023/06/13 00:45:21;;;;;;;8.13;5.38;;;;;;;16.28;100.00;94040.91;5096203;28;20032;-85
2023/06/13 00:48:06;;;;;;;6.65;4.75;;;;;;;16.44;100.00;94028.00;5096063;28;20036;-85
2023/06/13 00:50:36;;;;;;;10.18;4.85;;;;;;;16.76;100.00;94028.56;5096104;28;20032;-85
2023/06/13 00:53:09;;;;;;;6.68;4.60;;;;;;;16.63;100.00;94024.25;5096171;28;20034;-85
2023/06/13 00:55:36;;;;;;;8.43;5.13;;;;;;;16.35;100.00;94024.59;5095853;28;20032;-85
2023/06/13 00:58:06;;;;;;;6.50;4.53;;;;;;;16.28;100.00;94024.28;5078664;28;20376;-85
2023/06/13 01:00:33;;;;;;;6.72;4.43;;;;;;;16.51;100.00;94017.75;5096992;28;20345;-85
2023/06/13 01:02:58;;;;;;;8.38;4.80;;;;;;;16.40;100.00;94013.88;5096063;28;20420;-85
2023/06/13 01:05:28;;;;;;;9.32;4.97;;;;;;;16.35;100.00;94016.66;5096778;28;20111;-85
2023/06/13 01:08:07;;;;;;;7.50;4.13;;;;;;;16.27;100.00;94006.88;5095257;28;20035;-85
2023/06/13 01:10:33;;;;;;;7.78;4.57;;;;;;;16.53;100.00;94007.63;5095577;28;20409;-85
2023/06/13 01:13:01;;;;;;;6.50;4.50;;;;;;;16.67;100.00;94002.16;5095529;28;20063;-85
2023/06/13 01:15:32;;;;;;;7.10;4.10;;;;;;;16.90;100.00;94003.81;5096798;28;20032;-85
2023/06/13 01:18:00;;;;;;;6.25;4.32;;;;;;;16.95;100.00;93998.34;5095433;28;20073;-85
2023/06/13 01:20:28;;;;;;;5.43;3.85;;;;;;;16.96;100.00;94003.31;5095593;28;20020;-85
2023/06/13 01:23:04;;;;;;;6.13;4.18;;;;;;;16.48;100.00;93991.91;5078889;28;20386;-85
2023/06/13 01:25:57;;;;;;;7.10;4.53;;;;;;;16.90;100.00;94001.16;5096969;28;20071;-85
2023/06/13 01:28:24;;;;;;;6.03;3.97;;;;;;;17.01;100.00;93997.09;5095495;28;20028;-85
2023/06/13 01:30:51;;;;;;;7.60;3.90;;;;;;;17.08;100.00;94001.91;5112388;28;20322;-85
2023/06/13 01:33:16;;;;;;;5.70;4.20;;;;;;;17.07;100.00;94006.44;5078840;28;20062;-85
2023/06/13 01:35:42;;;;;;;7.53;5.13;;;;;;;16.40;100.00;94000.66;5078796;28;20123;-85
2023/06/13 01:38:08;;;;;;;8.38;4.63;;;;;;;16.23;100.00;94002.22;5095510;28;20046;-85
2023/06/13 01:40:34;;;;;;;6.97;4.40;;;;;;;15.96;100.00;93995.34;5095446;28;20024;-85
2023/06/13 01:42:59;;;;;;;9.32;4.72;;;;;;;15.86;100.00;93995.66;5096827;28;20039;-85
2023/06/13 01:45:24;;;;;;;9.63;4.65;;;;;;;15.94;100.00;93995.69;5095316;28;20040;-85
2023/06/13 01:48:07;;;;;;;7.68;4.40;;;;;;;16.21;100.00;93996.47;5094849;28;20173;-85
2023/06/13 01:50:45;;;;;;;8.98;4.78;;;;;;;15.99;100.00;93991.31;5129571;28;20118;-84
2023/06/13 01:53:21;;;;;;;6.03;4.05;;;;;;;16.14;100.00;93979.50;5095256;28;20058;-85
2023/06/13 01:56:00;;;;;;;7.38;3.92;;;;;;;16.36;100.00;93981.22;5095437;28;20031;-85
2023/06/13 01:58:34;;;;;;;6.38;4.15;;;;;;;16.51;100.00;93982.59;5095403;28;20062;-85
2023/06/13 02:01:03;;;;;;;6.20;4.07;;;;;;;16.11;100.00;93984.31;5096409;28;20032;-85
2023/06/13 02:03:28;;;;;;;10.27;4.82;;;;;;;15.93;100.00;93986.22;5095134;28;20059;-85
2023/06/13 02:05:54;;;;;;;6.95;4.45;;;;;;;16.13;100.00;93986.66;5095147;28;20059;-85
2023/06/13 02:08:19;;;;;;;8.90;4.50;;;;;;;16.40;100.00;93985.53;5095615;28;20464;-84
2023/06/13 02:10:45;;;;;;;6.93;4.30;;;;;;;16.54;100.00;93984.59;5096164;28;20501;-84
2023/06/13 02:13:10;;;;;;;7.60;4.95;;;;;;;16.79;100.00;93988.28;5078487;28;20064;-84
2023/06/13 02:15:36;;;;;;;6.40;3.97;;;;;;;16.89;100.00;93976.59;5094815;28;20038;-84
2023/06/13 02:18:02;;;;;;;5.82;4.57;;;;;;;16.30;100.00;93980.59;5078507;28;20027;-84
2023/06/13 02:20:27;;;;;;;10.00;4.32;;;;;;;16.53;100.00;93978.53;5099881;28;20031;-84
2023/06/13 02:22:53;;;;;;;7.80;4.50;;;;;;;16.68;100.00;93973.84;5099973;28;20039;-84
2023/06/13 02:25:18;;;;;;;11.73;4.75;;;;;;;16.51;100.00;93975.44;5099683;28;20036;-84
2023/06/13 02:27:44;;;;;;;5.68;4.03;;;;;;;16.50;100.00;93965.97;5081172;28;20035;-84
2023/06/13 02:30:10;;;;;;;9.95;4.90;;;;;;;16.65;100.00;93975.25;5098415;28;20040;-84
2023/06/13 02:32:39;;;;;;;10.88;4.20;;;;;;;16.69;100.00;93975.41;5099915;28;20116;-84
2023/06/13 02:35:06;;;;;;;7.55;4.28;;;;;;;16.48;100.00;93976.03;5098395;28;20090;-84
2023/06/13 02:37:32;;;;;;;8.30;4.28;;;;;;;16.91;100.00;93970.97;5099816;28;20035;-84
2023/06/13 02:39:57;;;;;;;5.38;4.13;;;;;;;16.85;100.00;93973.00;5099373;28;20425;-84
2023/06/13 02:42:23;;;;;;;4.93;4.10;;;;;;;16.89;100.00;93966.00;5098300;28;20036;-84
2023/06/13 02:44:49;;;;;;;7.45;4.40;;;;;;;16.93;100.00;93958.97;5080723;28;20468;-84
2023/06/13 02:47:15;;;;;;;9.30;4.32;;;;;;;16.94;100.00;93957.88;5098432;28;20067;-84
2023/06/13 02:49:40;;;;;;;10.98;4.40;;;;;;;16.39;100.00;93960.19;5097953;28;20036;-84
2023/06/13 02:52:06;;;;;;;8.93;4.40;;;;;;;16.27;100.00;93956.66;5099482;28;20437;-84
2023/06/13 02:54:31;;;;;;;6.53;4.57;;;;;;;16.20;100.00;93955.25;5099099;28;20115;-84
2023/06/13 02:56:58;;;;;;;7.20;4.60;;;;;;;16.45;100.00;93954.75;5098043;28;20106;-84
2023/06/13 02:59:24;;;;;;;8.60;4.68;;;;;;;16.60;100.00;93958.75;5097203;28;20075;-84
2023/06/13 03:01:50;;;;;;;6.30;4.63;;;;;;;16.61;100.00;93962.97;5098091;28;20437;-84
2023/06/13 03:04:18;;;;;;;7.18;4.70;;;;;;;16.59;100.00;93955.34;5097729;28;20027;-84
2023/06/13 03:06:44;;;;;;;6.90;4.70;;;;;;;16.57;100.00;93956.75;5098365;28;20028;-84
2023/06/13 03:09:11;;;;;;;5.95;4.55;;;;;;;16.66;100.00;93949.59;5097690;28;20032;-84
2023/06/13 03:11:36;;;;;;;12.20;5.43;;;;;;;16.42;100.00;93950.09;5097958;28;20323;-84
2023/06/13 03:14:02;;;;;;;7.95;4.68;;;;;;;16.38;100.00;93948.06;5097670;28;20122;-84
2023/06/13 03:16:28;;;;;;;11.50;5.35;;;;;;;16.27;100.00;93949.47;5097870;28;20043;-84
2023/06/13 03:18:54;;;;;;;10.13;4.95;;;;;;;16.44;100.00;93955.84;5098275;28;20026;-84
2023/06/13 03:21:20;;;;;;;12.65;5.20;;;;;;;16.24;100.00;93950.13;5097531;28;20412;-84
2023/06/13 03:23:46;;;;;;;9.13;5.15;;;;;;;16.13;100.00;93956.81;5097788;28;20068;-84
2023/06/13 03:26:12;;;;;;;8.10;5.22;;;;;;;16.13;100.00;93960.25;5131555;27;20444;-84
2023/06/13 03:28:37;;;;;;;8.48;4.55;;;;;;;16.39;100.00;93962.84;5131083;27;20118;-84
2023/06/13 03:31:03;;;;;;;6.00;4.40;;;;;;;16.48;100.00;93968.13;5097150;28;20032;-84
2023/06/13 03:33:28;;;;;;;6.78;4.80;;;;;;;16.55;100.00;93970.28;5080446;28;20036;-84
2023/06/13 03:35:53;;;;;;;14.80;4.38;;;;;;;16.63;100.00;93971.34;5097399;28;20024;-84
2023/06/13 03:38:20;;;;;;;9.18;4.78;;;;;;;16.59;100.00;93968.56;5097084;28;20028;-84
2023/06/13 03:40:45;;;;;;;11.35;4.28;;;;;;;16.85;100.00;93966.94;5097723;28;20356;-84
2023/06/13 03:43:11;;;;;;;9.85;4.70;;;;;;;16.58;100.00;93963.59;5097359;28;20031;-84
2023/06/13 03:45:36;;;;;;;7.28;4.43;;;;;;;16.39;100.00;93967.38;5080412;28;20038;-84
2023/06/13 03:48:02;;;;;;;8.80;4.38;;;;;;;16.31;100.00;93968.94;5079925;28;20034;-84
2023/06/13 03:50:27;;;;;;;6.60;4.38;;;;;;;16.36;100.00;93965.34;5098032;28;20035;-84
2023/06/13 03:52:53;;;;;;;9.30;4.65;;;;;;;16.44;100.00;93969.06;5096799;28;20071;-84
2023/06/13 03:55:18;;;;;;;6.57;4.40;;;;;;;16.68;100.00;93973.84;5097163;28;20031;-84
2023/06/13 03:57:44;;;;;;;5.50;3.95;;;;;;;16.78;100.00;93976.13;5096703;28;20054;-84
2023/06/13 04:00:10;;;;;;;6.15;4.20;;;;;;;16.65;100.00;93975.25;5097097;28;20468;-84
2023/06/13 04:02:37;;;;;;;7.78;3.90;;;;;;;16.82;100.00;93981.56;5113420;28;20087;-84
2023/06/13 04:05:02;;;;;;;7.00;3.95;;;;;;;17.01;100.00;93983.88;5096753;28;20028;-83
2023/06/13 04:07:33;;;;;;;5.75;3.58;;;;;;;17.08;100.00;93986.81;5096583;28;20039;-84
2023/06/13 04:10:00;;;;;;;6.80;3.40;;;;;;;17.02;100.00;93987.31;5096509;28;20494;-84
2023/06/13 04:12:26;;;;;;;8.00;4.50;;;;;;;17.09;100.00;93992.88;5096616;28;20496;-84
2023/06/13 04:14:51;;;;;;;8.32;3.65;;;;;;;17.10;100.00;93995.22;5096693;28;20060;-89
2023/06/13 04:17:16;;;;;;;5.72;3.72;;;;;;;16.90;100.00;93998.50;5097010;28;20415;-84
2023/06/13 04:19:42;;;;;;;7.53;3.60;;;;;;;17.17;100.00;93994.72;5078537;28;20028;-84
2023/06/13 04:22:08;;;;;;;8.02;4.03;;;;;;;17.33;100.00;93996.84;5076770;28;20472;-84
2023/06/13 04:24:33;;;;;;;5.05;3.88;;;;;;;17.12;100.00;94002.06;5077543;28;20032;-84
2023/06/13 04:27:03;;;;;;;6.43;3.58;;;;;;;16.60;100.00;94011.66;5110019;28;20040;-84
2023/06/13 04:29:30;;;;;;;10.23;4.30;;;;;;;16.29;100.00;94010.78;5109817;28;20437;-84
2023/06/13 04:31:55;;;;;;;5.80;3.88;;;;;;;16.28;100.00;94011.84;5076121;28;20085;-84
2023/06/13 04:34:23;;;;;;;7.68;4.00;;;;;;;16.36;100.00;94020.88;5076027;28;20032;-84
2023/06/13 04:36:49;;;;;;;7.50;4.00;;;;;;;16.38;100.00;94024.75;5092602;28;20441;-84
2023/06/13 04:39:15;;;;;;;8.52;3.95;;;;;;;16.56;100.00;94023.97;5076918;28;20111;-84
2023/06/13 04:41:43;;;;;;;4.30;3.42;;;;;;;16.93;100.00;94021.72;5092304;28;20044;-84
2023/06/13 04:44:09;;;;;;;6.20;3.50;;;;;;;16.79;100.00;94022.69;5109835;28;20060;-84
2023/06/13 04:46:36;;;;;;;5.40;3.55;;;;;;;16.71;100.00;94023.47;5092813;28;20066;-85
2023/06/13 04:49:02;;;;;;;4.60;3.05;;;;;;;16.64;100.00;94029.22;5078686;28;20381;-84
2023/06/13 04:51:28;;;;;;;6.28;3.42;;;;;;;16.85;100.00;94033.09;5095893;28;20066;-85
2023/06/13 04:54:00;;;;;;;7.60;3.60;;;;;;;16.85;100.00;94036.50;5095926;28;20024;-84
2023/06/13 04:56:27;;;;;;;5.40;3.47;;;;;;;16.94;100.00;94036.50;5095575;28;20024;-84
2023/06/13 04:58:53;;;;;;;8.23;3.55;;;;;;;17.06;100.00;94043.81;5095211;28;20043;-84
2023/06/13 05:01:20;;;;;;;8.10;3.20;;;;;;;17.39;100.00;94035.25;5095786;28;20056;-85
2023/06/13 05:03:47;;;;;;;4.32;3.00;;;;;;;17.53;100.00;94040.34;5079058;28;20028;-84
2023/06/13 05:06:12;;;;;;;4.40;3.13;;;;;;;17.58;100.00;94047.34;5096048;28;20028;-85
2023/06/13 05:08:38;;;;;;;5.13;2.85;;;;;;;17.93;100.00;94044.50;5095655;28;20053;-84
2023/06/13 05:11:03;;;;;;;5.75;3.38;;;;;;;18.47;100.00;94049.13;5082718;28;20044;-85
2023/06/13 05:13:30;;;;;;;3.60;2.90;;;;;;;18.35;100.00;94055.16;5092872;28;20052;-85
2023/06/13 05:15:56;;;;;;;4.60;3.20;;;;;;;18.53;100.00;94056.91;5076814;28;20036;-85
2023/06/13 05:18:29;;;;;;;4.38;2.83;;;;;;;18.88;100.00;94056.56;5076681;28;20094;-86
2023/06/13 05:20:58;;;;;;;6.13;3.27;;;;;;;18.53;100.00;94064.84;5110449;28;20024;-84
2023/06/13 05:23:23;;;;;;;3.63;2.63;;;;;;;19.04;100.00;94064.72;5092273;28;20271;-85
2023/06/13 05:25:48;;;;;;;4.00;2.95;;;;;;;18.99;100.00;94060.38;5076678;28;20395;-84
2023/06/13 05:28:16;;;;;;;3.47;2.90;;;;;;;19.40;100.00;94051.84;5075148;28;20078;-84
2023/06/13 05:30:42;;;;;;;4.38;3.00;;;;;;;19.12;100.00;94047.16;5075509;28;20119;-85
2023/06/13 05:33:08;;;;;;;5.22;2.90;;;;;;;18.32;100.00;94050.50;5076757;28;20036;-85
2023/06/13 05:35:33;;;;;;;3.75;3.10;;;;;;;19.10;100.00;94054.66;5077209;28;20038;-84
2023/06/13 05:37:59;;;;;;;6.88;2.83;;;;;;;18.76;100.00;94047.47;5095597;28;20058;-85
2023/06/13 05:40:24;;;;;;;5.53;3.60;;;;;;;17.88;100.00;94036.75;5095654;28;20028;-86
2023/06/13 05:42:50;;;;;;;10.43;3.97;;;;;;;17.56;100.00;94026.47;5090456;28;20180;-86
2023/06/13 05:45:15;;;;;;;5.30;3.85;;;;;;;18.28;100.00;94022.28;5095339;28;20024;-86
2023/06/13 05:47:40;;;;;;;5.55;3.40;;;;;;;18.86;100.00;94019.72;5074622;28;20070;-85
2023/06/13 05:50:06;;;;;;;6.05;4.00;;;;;;;19.49;100.00;94004.66;5094806;28;20043;-86
2023/06/13 05:52:32;;;;;;;7.65;2.83;;;;;;;19.74;100.00;94005.44;5096659;28;20028;-86
2023/06/13 05:54:58;;;;;;;5.85;3.00;;;;;;;19.77;100.00;93996.00;5133308;27;20028;-86
2023/06/13 05:57:37;;;;;;;3.67;2.70;;;;;;;20.30;100.00;94003.22;5099342;28;20032;-86
2023/06/13 06:00:03;;;;;;;7.68;2.95;;;;;;;19.71;100.00;94002.66;5099403;28;20055;-86
2023/06/13 06:02:28;;;;;;;4.65;3.17;;;;;;;18.54;100.00;94003.50;5099383;28;20071;-86
2023/06/13 06:04:55;;;;;;;4.55;3.45;;;;;;;18.67;100.00;94000.88;5100772;28;20036;-86
2023/06/13 06:07:20;;;;;;;5.82;2.70;;;;;;;19.55;100.00;94007.88;5115871;27;20115;-86
2023/06/13 06:09:45;;;;;;;4.60;2.97;;;;;;;19.60;100.00;94005.00;5099408;28;20138;-85
2023/06/13 06:12:11;;;;;;;7.95;2.75;;;;;;;19.69;100.00;93989.72;5097454;28;20108;-84
2023/06/13 06:14:37;;;;;;;7.35;3.08;;;;;;;20.24;100.00;93992.06;5099017;28;20322;-85
2023/06/13 06:17:02;;;;;;;4.20;3.10;;;;;;;19.97;100.00;93990.91;5098832;28;20079;-85
2023/06/13 06:19:27;;;;;;;10.48;3.83;;;;;;;19.45;100.00;93980.66;5098289;28;20032;-85
2023/06/13 06:21:53;;;;;;;7.43;3.90;;;;;;;19.24;100.00;93986.09;5099905;28;20030;-85
2023/06/13 06:24:18;;;;;;;6.03;3.80;;;;;;;19.52;100.00;93985.44;5099779;28;20391;-84
2023/06/13 06:26:43;;;;;;;6.28;4.30;;;;;;;20.62;100.00;93995.34;5100117;28;20028;-84
2023/06/13 06:29:09;;;;;;;7.05;3.90;;;;;;;20.99;100.00;93995.16;5098371;28;20345;-85
2023/06/13 06:31:34;;;;;;;12.95;4.32;;;;;;;20.89;100.00;93987.69;5099902;28;20036;-85
2023/06/13 06:34:00;;;;;;;6.40;3.70;;;;;;;20.60;100.00;93987.72;5081675;28;20481;-85
2023/06/13 06:36:25;;;;;;;6.22;3.83;;;;;;;19.77;100.00;93969.44;5098717;28;20115;-84
2023/06/13 06:38:51;;;;;;;7.18;3.60;;;;;;;19.59;100.00;93964.38;5099077;28;20039;-86
2023/06/13 06:41:16;;;;;;;6.13;3.58;;;;;;;19.47;100.00;93972.34;5096963;28;20032;-86
2023/06/13 06:43:42;;;;;;;8.43;3.95;;;;;;;19.26;100.00;93967.94;5098779;28;20073;-85
2023/06/13 06:46:08;;;;;;;5.38;3.58;;;;;;;19.27;100.00;93969.50;5098268;28;20043;-85
2023/06/13 06:48:33;;;;;;;8.65;3.25;;;;;;;19.40;100.00;93972.91;5097912;28;20039;-85
2023/06/13 06:50:59;;;;;;;4.32;2.55;;;;;;;19.84;100.00;93972.31;5098374;28;20032;-85
2023/06/13 06:53:24;;;;;;;6.50;2.78;;;;;;;19.32;100.00;93969.25;5081227;28;20038;-85
2023/06/13 06:55:50;;;;;;;6.88;2.83;;;;;;;19.25;100.00;93974.34;5099120;28;20122;-85
2023/06/13 06:58:15;;;;;;;2.97;2.33;;;;;;;19.45;100.00;93974.56;5097571;28;20027;-85
2023/06/13 07:00:41;;;;;;;8.93;2.50;;;;;;;18.85;100.00;93973.06;5081289;28;20028;-84
2023/06/13 07:03:07;;;;;;;4.30;2.85;;;;;;;19.20;100.00;93969.25;5097922;28;20122;-85
2023/06/13 07:05:32;;;;;;;5.07;2.80;;;;;;;18.90;100.00;93977.38;5097430;28;20055;-85
2023/06/13 07:07:58;;;;;;;7.43;2.63;;;;;;;19.16;100.00;93968.38;5080585;28;20031;-85
2023/06/13 07:10:25;;;;;;;4.20;2.80;;;;;;;19.53;100.00;93975.56;5080968;28;20036;-85
2023/06/13 07:12:50;;;;;;;5.25;3.28;;;;;;;20.02;100.00;93974.72;5081363;28;20027;-85
2023/06/13 07:15:16;;;;;;;5.93;2.67;;;;;;;20.34;100.00;93969.50;5097683;28;20345;-85
2023/06/13 07:17:41;;;;;;;4.22;2.53;;;;;;;20.57;100.00;93966.31;5097583;28;20123;-85
2023/06/13 07:20:11;;;;;;;3.72;2.70;;;;;;;20.46;100.00;93966.81;5098889;28;20547;-85
2023/06/13 07:22:36;;;;;;;4.90;2.60;;;;;;;20.09;100.00;93969.63;5097844;28;20383;-85
2023/06/13 07:25:03;;;;;;;5.75;3.80;;;;;;;20.28;100.00;93968.22;5097512;28;20073;-84
2023/06/13 07:27:28;;;;;;;6.78;3.75;;;;;;;20.66;100.00;93982.13;5097671;28;20494;-85
2023/06/13 07:29:54;;;;;;;7.80;4.22;;;;;;;19.79;100.00;93980.50;5098361;28;20036;-85
2023/06/13 07:32:19;;;;;;;10.18;4.93;;;;;;;20.49;100.00;93990.06;5080680;28;20341;-85
2023/06/13 07:34:45;;;;;;;7.60;4.53;;;;;;;20.53;100.00;93992.06;5098706;28;20349;-85
2023/06/13 07:37:11;;;;;;;10.75;4.57;;;;;;;20.29;100.00;93993.69;5097511;28;20040;-85
2023/06/13 07:39:36;;;;;;;6.15;4.68;;;;;;;20.62;100.00;93990.00;5097040;28;20032;-85
2023/06/13 07:42:02;;;;;;;11.15;5.10;;;;;;;20.91;100.00;93990.75;5098309;28;20085;-85
2023/06/13 07:44:27;;;;;;;7.20;4.70;;;;;;;21.70;100.00;93985.78;5097435;28;20392;-84
2023/06/13 07:47:01;;;;;;;7.15;4.60;;;;;;;21.09;100.00;93991.22;5080398;28;20028;-84
2023/06/13 07:49:26;;;;;;;6.57;4.60;;;;;;;20.98;100.00;93987.50;5079831;28;20110;-85
2023/06/13 07:51:53;;;;;;;10.27;4.85;;;;;;;21.76;100.00;93987.03;5097290;28;20111;-85
2023/06/13 07:54:18;;;;;;;6.38;4.88;;;;;;;22.36;100.00;93993.22;5097247;28;20036;-85
2023/06/13 07:56:44;;;;;;;9.70;4.85;;;;;;;22.67;100.00;94002.22;5096842;28;20334;-85
2023/06/13 07:59:10;;;;;;;11.27;5.20;;;;;;;22.60;100.00;93994.84;5096707;28;20075;-85
2023/06/13 08:01:36;;;;;;;10.95;5.40;;;;;;;21.37;100.00;93995.69;5080200;28;20093;-85
2023/06/13 08:04:01;;;;;;;7.32;4.65;;;;;;;20.84;100.00;93994.03;5098192;28;20036;-85
2023/06/13 08:06:27;;;;;;;8.40;5.28;;;;;;;21.28;100.00;93995.84;5079993;28;20081;-85
2023/06/13 08:08:52;;;;;;;12.55;5.50;;;;;;;21.82;100.00;93991.00;5097474;28;20043;-85
2023/06/13 08:11:17;;;;;;;10.93;6.00;;;;;;;21.72;100.00;93986.19;5096929;28;20036;-85
2023/06/13 08:13:43;;;;;;;7.00;5.40;;;;;;;21.26;100.00;93995.44;5095158;28;20032;-85
2023/06/13 08:16:08;;;;;;;10.32;5.10;;;;;;;21.38;100.00;93989.22;5075692;28;20035;-85
2023/06/13 08:18:34;;;;;;;8.18;4.97;;;;;;;20.89;100.00;93987.69;5077104;28;20032;-85
2023/06/13 08:20:59;;;;;;;10.27;5.05;;;;;;;20.87;100.00;93981.94;5075993;28;20442;-85
2023/06/13 08:23:24;;;;;;;7.13;4.95;;;;;;;20.97;100.00;93991.28;5092869;28;20094;-85
2023/06/13 08:25:50;;;;;;;6.43;4.80;;;;;;;21.57;100.00;93982.41;5076297;28;20119;-85
2023/06/13 08:28:16;;;;;;;9.05;3.90;;;;;;;20.76;100.00;93993.03;5092681;28;20036;-84
2023/06/13 08:30:42;;;;;;;6.95;5.07;;;;;;;20.52;100.00;93991.28;5076989;28;20044;-85
2023/06/13 08:33:09;;;;;;;6.70;4.63;;;;;;;20.99;100.00;93987.19;5076116;28;20085;-85
2023/06/13 08:35:34;;;;;;;10.38;4.82;;;;;;;21.55;100.00;93982.78;5075887;28;20403;-85
2023/06/13 08:38:00;;;;;;;8.57;5.00;;;;;;;21.09;100.00;93995.75;5075766;28;20036;-85
2023/06/13 08:40:25;;;;;;;6.78;4.93;;;;;;;21.43;100.00;93996.19;5076052;28;20039;-85
2023/06/13 08:42:51;;;;;;;8.30;5.22;;;;;;;21.42;100.00;93999.97;5076129;28;20036;-85
2023/06/13 08:45:17;;;;;;;8.88;4.78;;;;;;;20.40;100.00;93997.44;5076039;28;20040;-85
2023/06/13 08:47:46;;;;;;;6.35;4.13;;;;;;;21.40;100.00;93991.56;5075562;28;20040;-85
2023/06/13 08:50:14;;;;;;;6.10;4.15;;;;;;;21.38;100.00;93994.56;5092664;28;20457;-85
2023/06/13 08:52:41;;;;;;;9.65;5.18;;;;;;;21.04;100.00;94000.22;5074944;28;20032;-85
2023/06/13 08:55:15;;;;;;;11.10;4.82;;;;;;;20.99;100.00;93997.81;5075639;28;20502;-85
2023/06/13 08:57:42;;;;;;;10.95;4.97;;;;;;;20.55;100.00;93997.81;5075518;28;20086;-85
2023/06/13 09:00:11;;;;;;;6.97;4.57;;;;;;;20.86;100.00;93988.38;5109639;28;20028;-85
2023/06/13 09:02:39;;;;;;;8.40;5.00;;;;;;;20.74;100.00;93999.84;5076702;28;20475;-85
2023/06/13 09:05:05;;;;;;;10.35;5.28;;;;;;;19.96;100.00;94000.78;5076890;28;20483;-85
2023/06/13 09:07:31;;;;;;;12.07;5.78;;;;;;;20.11;100.00;94001.97;5075941;28;20052;-85
2023/06/13 09:09:58;;;;;;;8.88;5.40;;;;;;;20.61;100.00;94009.75;5076195;28;20028;-85
2023/06/13 09:12:24;;;;;;;12.45;6.20;;;;;;;19.98;100.00;94005.75;5076593;28;20453;-85
2023/06/13 09:14:49;;;;;;;8.52;5.50;;;;;;;20.06;100.00;94007.50;5075505;28;20025;-85
2023/06/13 09:17:16;;;;;;;12.48;6.40;;;;;;;20.56;100.00;94002.78;5076887;28;20145;-85
2023/06/13 09:19:43;;;;;;;12.90;5.95;;;;;;;20.63;100.00;94010.19;5074977;28;20119;-85
2023/06/13 09:22:08;;;;;;;12.18;5.10;;;;;;;21.24;100.00;94002.22;5075422;28;20028;-85
2023/06/13 09:24:35;;;;;;;11.30;5.35;;;;;;;21.56;100.00;94008.31;5075571;28;20077;-85
2023/06/13 09:27:03;;;;;;;14.85;5.78;;;;;;;22.27;100.00;94006.78;5075843;28;20070;-85
2023/06/13 09:29:33;;;;;;;15.02;5.97;;;;;;;22.08;100.00;94002.19;5079250;28;20028;-85
2023/06/13 09:31:59;;;;;;;13.60;6.45;;;;;;;22.62;100.00;94005.19;5079620;28;20077;-85
2023/06/13 09:34:28;;;;;;;21.95;7.50;;;;;;;22.08;100.00;94000.28;5079703;28;20036;-85
2023/06/13 09:36:55;;;;;;;16.95;7.03;;;;;;;22.01;100.00;94002.81;5079606;28;20162;-85
2023/06/13 09:39:20;;;;;;;11.38;5.95;;;;;;;21.97;100.00;93996.63;5079422;28;20389;-85
2023/06/13 09:41:55;;;;;;;12.73;6.47;;;;;;;21.86;100.00;93999.06;5079496;28;20037;-85
2023/06/13 09:44:22;;;;;;;16.77;7.15;;;;;;;22.70;100.00;93991.59;5079267;28;20028;-85
2023/06/13 09:46:50;;;;;;;16.98;8.70;;;;;;;22.00;100.00;93982.59;5113207;28;20032;-86
2023/06/13 09:49:16;;;;;;;16.08;7.50;;;;;;;22.33;100.00;93976.00;5112501;28;20394;-85
2023/06/13 09:51:42;;;;;;;12.93;7.30;;;;;;;22.39;100.00;93981.81;5078911;28;20229;-85
2023/06/13 09:54:08;;;;;;;14.38;7.97;;;;;;;22.09;100.00;93977.81;5079251;28;20159;-86
2023/06/13 09:56:33;;;;;;;17.83;7.95;;;;;;;21.84;100.00;93971.97;5079118;28;20041;-85
2023/06/13 09:58:59;;;;;;;17.95;8.18;;;;;;;21.54;100.00;93978.56;5081885;28;20036;-85
2023/06/13 10:01:27;;;;;;;11.05;8.00;;;;;;;21.65;100.00;93973.47;5082431;28;20032;-85
2023/06/13 10:03:52;;;;;;;15.18;8.02;;;;;;;21.75;100.00;93972.16;5082302;28;20038;-85
2023/06/13 10:06:17;;;;;;;23.67;8.38;;;;;;;21.67;100.00;93967.81;5098970;28;20040;-85
2023/06/13 10:08:43;;;;;;;22.38;7.57;;;;;;;22.69;100.00;93973.25;5098631;28;20061;-85
2023/06/13 10:11:12;;;;;;;18.15;8.45;;;;;;;22.13;100.00;93965.34;5100039;28;20438;-85
2023/06/13 10:13:45;;;;;;;12.90;7.35;;;;;;;22.71;100.00;93966.44;5099238;28;20395;-86
2023/06/13 10:16:11;;;;;;;15.85;7.57;;;;;;;21.73;100.00;93956.53;5082084;28;20067;-84
2023/06/13 10:18:39;;;;;;;18.85;9.48;;;;;;;21.94;100.00;93970.66;5098650;28;20097;-86
2023/06/13 10:21:06;;;;;;;19.55;8.43;;;;;;;22.11;100.00;93962.25;5098811;28;20027;-85
2023/06/13 10:23:33;;;;;;;13.05;8.73;;;;;;;21.55;100.00;93958.78;5082079;28;20031;-85
2023/06/13 10:26:04;;;;;;;16.20;7.97;;;;;;;21.96;100.00;93955.09;5093825;28;20036;-85
2023/06/13 10:28:36;;;;;;;17.75;8.85;;;;;;;21.95;100.00;93959.63;5079849;28;20131;-85
2023/06/13 10:31:26;;;;;;;15.25;8.57;;;;;;;21.85;100.00;93954.84;5098733;28;20446;-85
2023/06/13 10:34:03;;;;;;;19.88;9.73;;;;;;;21.22;100.00;93954.59;5098425;28;20067;-85
2023/06/13 10:36:45;;;;;;;13.32;8.35;;;;;;;21.04;100.00;93957.63;5099539;28;20031;-85
2023/06/13 10:39:29;;;;;;;16.88;8.73;;;;;;;21.15;100.00;93963.19;5096905;28;20085;-85
2023/06/13 10:41:57;;;;;;;;;;;;;;;22.12;100.00;93953.13;5098902;28;20028;-85
2023/06/13 10:44:52;;;;;;;17.30;8.00;;;;;;;22.14;100.00;93960.75;5099726;28;19954;-85
2023/06/13 10:47:18;;;;;;;14.00;8.63;;;;;;;21.97;100.00;93957.38;5097924;28;20032;-85
2023/06/13 10:49:47;;;;;;;16.08;7.68;;;;;;;22.56;100.00;93953.97;5098254;28;20032;-85
2023/06/13 10:52:13;;;;;;;17.48;8.57;;;;;;;21.53;100.00;93944.25;5098472;28;20035;-85
2023/06/13 10:54:40;;;;;;;16.75;9.23;;;;;;;21.50;100.00;93945.72;5099532;28;20032;-85
2023/06/13 10:57:06;;;;;;;18.98;9.65;;;;;;;21.28;100.00;93939.91;5098352;28;20028;-85
2023/06/13 10:59:40;;;;;;;17.73;8.40;;;;;;;21.62;100.00;93942.19;5080978;28;20023;-85
2023/06/13 11:02:13;;;;;;;20.80;9.20;;;;;;;21.87;100.00;93942.72;5098326;28;20039;-85
2023/06/13 11:04:38;;;;;;;;;;;;;;;22.48;100.00;93939.72;5098099;28;20024;-84
2023/06/13 11:07:25;;;;;;;14.40;6.97;;;;;;;23.38;100.00;93936.97;5097729;28;20302;-85
2023/06/13 11:10:10;;;;;;;13.90;7.55;;;;;;;23.62;100.00;93935.03;5098430;28;20038;-85
2023/06/13 11:12:36;;;;;;;17.55;7.72;;;;;;;23.02;100.00;93932.63;5081290;28;20456;-85
2023/06/13 11:15:01;;;;;;;14.98;7.57;;;;;;;22.82;100.00;93939.91;5099409;28;20062;-85
2023/06/13 11:17:27;;;;;;;19.33;8.57;;;;;;;22.23;100.00;93926.66;5099097;28;20028;-85
2023/06/13 11:19:55;;;;;;;11.38;7.50;;;;;;;21.72;100.00;93932.88;5097292;28;20459;-85
2023/06/13 11:22:22;;;;;;;13.30;7.05;;;;;;;22.16;100.00;93927.28;5098634;28;20051;-85
2023/06/13 11:24:48;;;;;;;14.25;7.30;;;;;;;22.46;100.00;93923.25;5097702;28;20028;-85